createdAt,value
2022-07-27T00:01:08.151Z,17.40
2022-07-27T00:03:38.306Z,17.40
2022-07-27T00:06:06.718Z,17.40
2022-07-27T00:08:35.476Z,17.40
2022-07-27T00:11:04.046Z,17.30
2022-07-27T00:13:32.612Z,17.30
2022-07-27T00:16:00.763Z,17.20
2022-07-27T00:18:28.916Z,17.20
2022-07-27T00:20:58.328Z,17.20
2022-07-27T00:23:26.369Z,17.20
2022-07-27T00:25:54.871Z,17.20
2022-07-27T00:28:22.908Z,17.20
2022-07-27T00:30:51.103Z,17.20
2022-07-27T00:33:19.125Z,17.20
2022-07-27T00:35:47.207Z,17.20
2022-07-27T00:38:17.026Z,17.20
2022-07-27T00:40:45.260Z,17.10
2022-07-27T00:43:13.625Z,17.10
2022-07-27T00:45:41.846Z,17.10
2022-07-27T00:48:09.915Z,17.10
2022-07-27T00:50:38.800Z,17.00
2022-07-27T00:53:06.863Z,17.00
2022-07-27T00:55:36.593Z,17.00
2022-07-27T00:58:06.026Z,17.00
2022-07-27T01:00:34.066Z,17.00
2022-07-27T01:03:02.564Z,16.90
2022-07-27T01:05:43.401Z,16.90
2022-07-27T01:08:13.956Z,16.90
2022-07-27T01:10:45.226Z,16.90
2022-07-27T01:13:13.838Z,16.90
2022-07-27T01:15:43.082Z,16.90
2022-07-27T01:18:14.967Z,16.90
2022-07-27T01:20:43.535Z,16.90
2022-07-27T01:23:12.977Z,16.80
2022-07-27T01:25:43.908Z,16.80
2022-07-27T01:28:11.975Z,16.80
2022-07-27T01:30:39.983Z,16.80
2022-07-27T01:33:10.187Z,16.80
2022-07-27T01:35:39.132Z,16.70
2022-07-27T01:38:07.957Z,16.70
2022-07-27T01:40:37.848Z,16.70
2022-07-27T01:43:06.273Z,16.70
2022-07-27T01:45:34.326Z,16.70
2022-07-27T01:48:02.608Z,16.70
2022-07-27T01:50:30.825Z,16.70
2022-07-27T01:52:58.871Z,16.70
2022-07-27T01:55:26.899Z,16.70
2022-07-27T01:58:07.346Z,16.60
2022-07-27T02:00:35.913Z,16.60
2022-07-27T02:03:06.599Z,16.60
2022-07-27T02:05:39.218Z,16.60
2022-07-27T02:08:08.578Z,16.60
2022-07-27T02:10:57.822Z,16.50
2022-07-27T02:13:26.357Z,16.50
2022-07-27T02:15:55.119Z,16.50
2022-07-27T02:18:33.773Z,16.50
2022-07-27T02:21:05.895Z,16.50
2022-07-27T02:23:37.498Z,16.50
2022-07-27T02:26:06.489Z,16.40
2022-07-27T02:28:36.756Z,16.50
2022-07-27T02:31:04.796Z,16.40
2022-07-27T02:33:35.386Z,16.40
2022-07-27T02:36:03.853Z,16.40
2022-07-27T02:38:31.969Z,16.40
2022-07-27T02:40:59.975Z,16.40
2022-07-27T02:43:28.185Z,16.40
2022-07-27T02:45:57.728Z,16.40
2022-07-27T02:48:25.813Z,16.40
2022-07-27T02:50:54.079Z,16.40
2022-07-27T02:53:22.119Z,16.40
2022-07-27T02:55:50.102Z,16.30
2022-07-27T02:58:18.161Z,16.30
2022-07-27T03:00:46.251Z,16.30
2022-07-27T03:03:15.773Z,16.30
2022-07-27T03:05:43.856Z,16.30
2022-07-27T03:08:12.036Z,16.30
2022-07-27T03:10:40.079Z,16.30
2022-07-27T03:13:08.090Z,16.30
2022-07-27T03:15:36.202Z,16.30
2022-07-27T03:18:04.896Z,16.30
2022-07-27T03:20:34.358Z,16.40
2022-07-27T03:23:02.384Z,16.40
2022-07-27T03:25:30.554Z,16.40
2022-07-27T03:28:03.830Z,16.40
2022-07-27T03:30:32.535Z,16.40
2022-07-27T03:33:00.642Z,16.40
2022-07-27T03:35:28.672Z,16.40
2022-07-27T03:37:58.058Z,16.40
2022-07-27T03:40:26.112Z,16.40
2022-07-27T03:42:54.106Z,16.40
2022-07-27T03:45:22.143Z,16.40
2022-07-27T03:47:50.170Z,16.40
2022-07-27T03:50:18.377Z,16.40
2022-07-27T03:52:46.971Z,16.40
2022-07-27T03:55:16.382Z,16.40
2022-07-27T03:57:44.478Z,16.40
2022-07-27T04:00:14.137Z,16.40
2022-07-27T04:02:42.905Z,16.40
2022-07-27T04:05:12.111Z,16.40
2022-07-27T04:07:40.823Z,16.40
2022-07-27T04:10:10.207Z,16.40
2022-07-27T04:12:40.435Z,16.40
2022-07-27T04:15:10.111Z,16.40
2022-07-27T04:17:56.433Z,16.50
2022-07-27T04:20:25.514Z,16.50
2022-07-27T04:22:53.523Z,16.60
2022-07-27T04:25:22.526Z,16.60
2022-07-27T04:27:54.414Z,16.60
2022-07-27T04:30:22.970Z,16.60
2022-07-27T04:32:51.162Z,16.60
2022-07-27T04:35:22.759Z,16.60
2022-07-27T04:37:58.356Z,16.70
2022-07-27T04:40:27.656Z,16.70
2022-07-27T04:42:57.046Z,16.70
2022-07-27T04:45:25.435Z,16.80
2022-07-27T04:47:53.420Z,16.80
2022-07-27T04:50:21.687Z,16.80
2022-07-27T04:52:50.014Z,16.90
2022-07-27T04:55:17.993Z,16.80
2022-07-27T04:57:45.991Z,16.90
2022-07-27T05:00:16.196Z,16.90
2022-07-27T05:02:44.318Z,17.00
2022-07-27T05:05:12.350Z,17.10
2022-07-27T05:07:40.366Z,17.30
2022-07-27T05:10:09.150Z,17.40
2022-07-27T05:12:37.971Z,17.50
2022-07-27T05:15:06.849Z,17.60
2022-07-27T05:17:37.417Z,17.80
2022-07-27T05:20:06.569Z,17.90
2022-07-27T05:22:39.289Z,18.00
2022-07-27T05:25:08.824Z,18.20
2022-07-27T05:27:37.508Z,18.30
2022-07-27T05:30:23.661Z,18.50
2022-07-27T05:32:53.725Z,18.70
2022-07-27T05:35:22.270Z,18.90
2022-07-27T05:37:50.320Z,19.00
2022-07-27T05:40:18.390Z,19.20
2022-07-27T05:42:46.429Z,19.40
2022-07-27T05:45:14.667Z,19.70
2022-07-27T05:47:42.862Z,19.90
2022-07-27T05:50:12.461Z,20.10
2022-07-27T05:52:40.564Z,20.10
2022-07-27T05:55:09.251Z,20.10
2022-07-27T05:57:37.696Z,20.00
2022-07-27T06:00:06.923Z,20.00
2022-07-27T06:02:35.230Z,20.00
2022-07-27T06:05:03.722Z,20.00
2022-07-27T06:07:50.368Z,20.00
2022-07-27T06:10:18.780Z,20.00
2022-07-27T06:12:47.569Z,20.10
2022-07-27T06:15:16.940Z,20.10
2022-07-27T06:17:46.760Z,20.10
2022-07-27T06:20:15.010Z,20.10
2022-07-27T06:22:49.334Z,20.10
2022-07-27T06:25:18.082Z,20.20
2022-07-27T06:27:46.769Z,20.20
2022-07-27T06:30:18.917Z,20.40
2022-07-27T06:32:48.999Z,20.70
2022-07-27T06:35:18.353Z,20.80
2022-07-27T06:37:52.133Z,20.90
2022-07-27T06:40:20.576Z,21.00
2022-07-27T06:42:48.697Z,21.20
2022-07-27T06:45:16.988Z,21.40
2022-07-27T06:47:49.098Z,21.60
2022-07-27T06:50:18.337Z,21.90
2022-07-27T06:52:46.417Z,22.10
2022-07-27T06:55:18.740Z,22.10
2022-07-27T06:57:47.262Z,22.00
2022-07-27T07:00:16.468Z,22.00
2022-07-27T07:02:53.387Z,21.80
2022-07-27T07:05:21.753Z,21.90
2022-07-27T07:07:49.968Z,21.90
2022-07-27T07:10:19.921Z,21.80
2022-07-27T07:12:49.852Z,21.70
2022-07-27T07:15:18.139Z,21.70
2022-07-27T07:17:46.123Z,21.90
2022-07-27T07:20:14.630Z,22.20
2022-07-27T07:22:42.670Z,22.50
2022-07-27T07:25:10.988Z,23.00
2022-07-27T07:27:40.439Z,23.40
2022-07-27T07:30:09.483Z,23.80
2022-07-27T07:32:37.507Z,24.10
2022-07-27T07:35:06.608Z,24.60
2022-07-27T07:37:34.825Z,24.90
2022-07-27T07:42:55.667Z,24.70
2022-07-27T07:45:25.033Z,24.90
2022-07-27T07:47:53.932Z,25.20
2022-07-27T07:50:22.931Z,25.10
2022-07-27T07:52:51.934Z,24.90
2022-07-27T07:55:21.163Z,24.70
2022-07-27T07:57:50.820Z,24.50
2022-07-27T08:00:22.542Z,24.40
2022-07-27T08:02:52.854Z,24.40
2022-07-27T08:05:21.803Z,24.70
2022-07-27T08:07:50.257Z,25.10
2022-07-27T08:10:19.730Z,25.30
2022-07-27T08:12:49.916Z,25.70
2022-07-27T08:15:19.082Z,25.90
2022-07-27T08:17:48.861Z,25.70
2022-07-27T08:20:17.846Z,26.00
2022-07-27T08:22:48.633Z,26.30
2022-07-27T08:25:16.772Z,26.40
2022-07-27T08:27:44.853Z,26.70
2022-07-27T08:30:15.705Z,27.00
2022-07-27T08:32:53.022Z,26.90
2022-07-27T08:35:22.015Z,27.20
2022-07-27T08:37:50.486Z,27.50
2022-07-27T08:43:08.141Z,27.80
2022-07-27T08:45:38.143Z,27.80
2022-07-27T08:48:08.064Z,27.80
2022-07-27T08:50:36.085Z,28.10
2022-07-27T08:53:07.293Z,28.40
2022-07-27T08:55:38.047Z,28.40
2022-07-27T08:58:06.857Z,28.40
2022-07-27T09:00:38.638Z,28.40
2022-07-27T09:03:08.387Z,28.40
2022-07-27T09:05:43.152Z,28.40
2022-07-27T09:08:12.029Z,28.30
2022-07-27T09:10:40.493Z,28.30
2022-07-27T09:13:22.214Z,28.30
2022-07-27T09:16:16.736Z,28.40
2022-07-27T09:18:42.515Z,28.30
2022-07-27T09:21:15.895Z,28.30
2022-07-27T09:23:48.094Z,28.20
2022-07-27T09:26:31.844Z,28.30
2022-07-27T09:29:02.979Z,28.30
2022-07-27T09:31:31.745Z,28.50
2022-07-27T09:34:03.727Z,28.70
2022-07-27T09:36:32.497Z,28.90
2022-07-27T09:39:03.830Z,29.00
2022-07-27T09:41:43.468Z,29.10
2022-07-27T09:44:32.367Z,29.30
2022-07-27T09:47:01.519Z,29.60
2022-07-27T09:49:35.587Z,29.40
2022-07-27T09:52:05.055Z,29.50
2022-07-27T09:54:44.285Z,29.80
2022-07-27T09:57:12.726Z,29.70
2022-07-27T09:59:41.128Z,29.80
2022-07-27T10:02:09.377Z,29.80
2022-07-27T10:04:39.060Z,29.90
2022-07-27T10:07:12.697Z,30.10
2022-07-27T10:09:42.035Z,30.20
2022-07-27T10:12:10.689Z,30.30
2022-07-27T10:14:38.723Z,30.50
2022-07-27T10:17:10.739Z,30.70
2022-07-27T10:19:50.481Z,30.60
2022-07-27T10:22:38.698Z,30.60
2022-07-27T10:25:07.664Z,30.50
2022-07-27T10:27:35.683Z,30.40
2022-07-27T10:30:06.494Z,30.40
2022-07-27T10:32:37.197Z,30.60
2022-07-27T10:35:17.998Z,30.90
2022-07-27T10:38:10.237Z,31.10
2022-07-27T10:40:39.032Z,31.20
2022-07-27T10:43:19.849Z,31.20
2022-07-27T10:46:02.734Z,31.30
2022-07-27T10:48:44.210Z,31.30
2022-07-27T10:51:17.844Z,31.50
2022-07-27T10:54:11.648Z,31.50
2022-07-27T10:56:50.723Z,31.50
2022-07-27T11:00:07.882Z,31.40
2022-07-27T11:02:42.213Z,31.30
2022-07-27T11:05:42.581Z,31.40
2022-07-27T11:10:50.518Z,31.30
2022-07-27T11:13:20.270Z,31.20
2022-07-27T11:15:59.721Z,31.10
2022-07-27T11:18:39.141Z,31.10
2022-07-27T11:21:14.812Z,31.20
2022-07-27T11:23:52.211Z,31.40
2022-07-27T11:26:21.327Z,31.40
2022-07-27T11:28:50.012Z,31.40
2022-07-27T11:31:32.710Z,31.40
2022-07-27T11:34:07.714Z,31.50
2022-07-27T11:36:44.014Z,31.50
2022-07-27T11:39:15.206Z,31.50
2022-07-27T11:42:12.081Z,31.70
2022-07-27T11:44:33.096Z,31.80
2022-07-27T11:47:02.871Z,31.90
2022-07-27T11:49:33.808Z,31.80
2022-07-27T11:52:03.596Z,31.90
2022-07-27T11:54:35.066Z,32.00
2022-07-27T11:57:05.364Z,32.10
2022-07-27T11:59:35.605Z,32.20
2022-07-27T12:02:05.601Z,32.20
2022-07-27T12:04:35.401Z,32.20
2022-07-27T12:07:10.542Z,32.20
2022-07-27T12:09:43.409Z,32.20
2022-07-27T12:12:14.872Z,32.20
2022-07-27T12:14:48.078Z,32.00
2022-07-27T12:17:22.906Z,31.80
2022-07-27T12:20:09.736Z,31.70
2022-07-27T12:22:40.090Z,31.60
2022-07-27T12:25:25.367Z,31.60
2022-07-27T12:27:58.107Z,31.50
2022-07-27T12:30:33.888Z,31.40
2022-07-27T12:33:02.965Z,31.30
2022-07-27T12:35:37.302Z,31.30
2022-07-27T12:38:10.308Z,31.30
2022-07-27T12:40:48.277Z,31.20
2022-07-27T12:43:18.716Z,31.20
2022-07-27T12:45:47.797Z,31.20
2022-07-27T12:48:21.113Z,31.20
2022-07-27T12:50:57.744Z,31.10
2022-07-27T12:53:25.936Z,31.10
2022-07-27T12:55:56.941Z,31.10
2022-07-27T12:58:25.237Z,31.00
2022-07-27T13:00:54.691Z,31.00
2022-07-27T13:03:23.189Z,30.90
2022-07-27T13:05:51.218Z,30.90
2022-07-27T13:08:19.283Z,30.90
2022-07-27T13:10:48.439Z,30.80
2022-07-27T13:13:17.806Z,30.80
2022-07-27T13:15:45.921Z,30.60
2022-07-27T13:18:13.939Z,30.60
2022-07-27T13:20:43.031Z,30.60
2022-07-27T13:23:11.106Z,30.50
2022-07-27T13:25:43.247Z,30.40
2022-07-27T13:28:11.778Z,30.40
2022-07-27T13:30:41.338Z,30.30
2022-07-27T13:33:09.703Z,30.30
2022-07-27T13:35:37.902Z,30.30
2022-07-27T13:38:05.952Z,30.20
2022-07-27T13:40:36.439Z,30.20
2022-07-27T13:43:04.499Z,30.20
2022-07-27T13:45:43.516Z,30.10
2022-07-27T13:48:13.088Z,30.10
2022-07-27T13:50:41.352Z,30.10
2022-07-27T13:53:09.439Z,30.10
2022-07-27T13:55:43.857Z,30.10
2022-07-27T13:58:12.725Z,30.10
2022-07-27T14:00:42.760Z,30.00
2022-07-27T14:03:11.753Z,30.00
2022-07-27T14:05:49.147Z,29.90
2022-07-27T14:08:18.516Z,29.80
2022-07-27T14:10:46.647Z,29.80
2022-07-27T14:13:16.854Z,29.80
2022-07-27T14:15:53.655Z,29.80
2022-07-27T14:18:26.219Z,29.80
2022-07-27T14:20:55.191Z,29.80
2022-07-27T14:23:23.488Z,29.80
2022-07-27T14:25:51.707Z,29.80
2022-07-27T14:28:19.825Z,29.70
2022-07-27T14:30:49.741Z,29.70
2022-07-27T14:33:18.241Z,29.70
2022-07-27T14:35:46.413Z,29.70
2022-07-27T14:38:27.873Z,29.70
2022-07-27T14:41:00.686Z,29.70
2022-07-27T14:43:29.386Z,29.70
2022-07-27T14:45:58.954Z,29.60
2022-07-27T14:48:42.640Z,29.60
2022-07-27T14:51:18.094Z,29.60
2022-07-27T14:53:46.292Z,29.50
2022-07-27T14:56:14.454Z,29.50
2022-07-27T14:58:42.537Z,29.50
2022-07-27T15:01:11.978Z,29.40
2022-07-27T15:03:40.174Z,29.40
2022-07-27T15:06:08.278Z,29.40
2022-07-27T15:08:36.321Z,29.40
2022-07-27T15:11:04.454Z,29.40
2022-07-27T15:13:32.537Z,29.40
2022-07-27T15:16:00.624Z,29.40
2022-07-27T15:18:34.996Z,29.30
2022-07-27T15:21:09.979Z,29.00
2022-07-27T15:23:42.410Z,29.00
2022-07-27T15:26:11.011Z,29.00
2022-07-27T15:28:39.257Z,29.10
2022-07-27T15:31:07.407Z,29.10
2022-07-27T15:33:36.922Z,29.10
2022-07-27T15:36:05.387Z,29.10
2022-07-27T15:38:35.818Z,29.10
2022-07-27T15:41:03.893Z,29.00
2022-07-27T15:43:32.063Z,29.10
2022-07-27T15:46:00.094Z,29.00
2022-07-27T15:48:28.207Z,29.00
2022-07-27T15:50:58.936Z,29.00
2022-07-27T15:53:28.100Z,29.00
2022-07-27T15:55:56.506Z,29.00
2022-07-27T15:58:25.190Z,29.00
2022-07-27T16:00:57.405Z,28.90
2022-07-27T16:03:27.253Z,28.90
2022-07-27T16:05:57.704Z,28.90
2022-07-27T16:08:27.143Z,28.80
2022-07-27T16:10:58.891Z,28.80
2022-07-27T16:13:27.411Z,28.80
2022-07-27T16:16:12.964Z,28.80
2022-07-27T16:18:41.338Z,28.80
2022-07-27T16:21:10.737Z,28.80
2022-07-27T16:23:38.811Z,28.80
2022-07-27T16:26:07.880Z,28.70
2022-07-27T16:28:39.383Z,28.70
2022-07-27T16:31:08.583Z,28.60
2022-07-27T16:33:36.730Z,28.60
2022-07-27T16:36:05.626Z,28.50
2022-07-27T16:38:35.096Z,28.40
2022-07-27T16:41:06.817Z,28.40
2022-07-27T16:43:39.222Z,28.30
2022-07-27T16:46:09.991Z,28.30
2022-07-27T16:48:42.485Z,28.20
2022-07-27T16:51:12.955Z,28.10
2022-07-27T16:53:44.582Z,28.00
2022-07-27T16:56:12.867Z,27.90
2022-07-27T16:58:41.076Z,27.90
2022-07-27T17:01:10.141Z,27.80
2022-07-27T17:03:51.312Z,27.80
2022-07-27T17:06:20.917Z,27.70
2022-07-27T17:08:50.465Z,27.70
2022-07-27T17:11:20.960Z,27.60
2022-07-27T17:13:50.365Z,27.50
2022-07-27T17:16:18.795Z,27.50
2022-07-27T17:18:47.187Z,27.40
2022-07-27T17:21:15.366Z,27.30
2022-07-27T17:23:44.080Z,27.20
2022-07-27T17:26:14.737Z,27.10
2022-07-27T17:28:43.296Z,27.10
2022-07-27T17:31:12.965Z,27.00
2022-07-27T17:33:42.132Z,26.90
2022-07-27T17:36:14.976Z,26.80
2022-07-27T17:38:44.105Z,26.70
2022-07-27T17:41:13.959Z,26.50
2022-07-27T17:43:42.260Z,26.50
2022-07-27T17:46:15.776Z,26.30
2022-07-27T17:48:43.940Z,26.20
2022-07-27T17:51:11.997Z,26.10
2022-07-27T17:53:40.056Z,26.10
2022-07-27T17:56:08.459Z,25.90
2022-07-27T17:58:38.295Z,25.80
2022-07-27T18:01:07.228Z,25.60
2022-07-27T18:03:35.560Z,25.70
2022-07-27T18:06:03.817Z,25.60
2022-07-27T18:08:31.898Z,25.40
2022-07-27T18:11:00.020Z,25.30
2022-07-27T18:13:38.970Z,25.10
2022-07-27T18:16:11.726Z,25.00
2022-07-27T18:18:41.282Z,24.90
2022-07-27T18:21:10.561Z,24.80
2022-07-27T18:23:38.736Z,24.70
2022-07-27T18:26:07.039Z,24.70
2022-07-27T18:28:39.370Z,24.50
2022-07-27T18:31:12.469Z,24.40
2022-07-27T18:33:45.717Z,24.30
2022-07-27T18:36:14.506Z,24.30
2022-07-27T18:38:44.982Z,24.20
2022-07-27T18:41:14.074Z,24.10
2022-07-27T18:43:42.150Z,24.00
2022-07-27T18:46:12.392Z,23.80
2022-07-27T18:48:40.516Z,23.70
2022-07-27T18:51:09.068Z,23.70
2022-07-27T18:53:37.581Z,23.70
2022-07-27T18:56:06.064Z,23.60
2022-07-27T18:58:34.237Z,23.60
2022-07-27T19:01:02.458Z,23.40
2022-07-27T19:03:32.203Z,23.30
2022-07-27T19:06:00.522Z,23.20
2022-07-27T19:08:29.293Z,23.20
2022-07-27T19:10:57.411Z,23.20
2022-07-27T19:13:25.490Z,23.10
2022-07-27T19:15:55.577Z,23.00
2022-07-27T19:18:25.119Z,22.90
2022-07-27T19:20:55.489Z,22.90
2022-07-27T19:23:23.853Z,22.90
2022-07-27T19:25:51.940Z,22.80
2022-07-27T19:28:22.116Z,22.80
2022-07-27T19:30:50.302Z,22.70
2022-07-27T19:33:19.697Z,22.70
2022-07-27T19:35:47.753Z,22.60
2022-07-27T19:38:17.233Z,22.50
2022-07-27T19:40:46.788Z,22.50
2022-07-27T19:43:15.819Z,22.50
2022-07-27T19:45:44.025Z,22.40
2022-07-27T19:48:12.493Z,22.40
2022-07-27T19:50:41.072Z,22.30
2022-07-27T19:53:09.623Z,22.30
2022-07-27T19:55:39.319Z,22.30
2022-07-27T19:58:09.563Z,22.30
2022-07-27T20:00:37.672Z,22.20
2022-07-27T20:03:07.424Z,22.20
2022-07-27T20:05:35.807Z,22.20
2022-07-27T20:08:03.856Z,22.20
2022-07-27T20:10:32.050Z,22.20
2022-07-27T20:13:01.928Z,22.20
2022-07-27T20:15:30.294Z,22.20
2022-07-27T20:17:58.660Z,22.20
2022-07-27T20:20:28.158Z,22.20
2022-07-27T20:22:56.464Z,22.20
2022-07-27T20:25:24.727Z,22.20
2022-07-27T20:27:53.936Z,22.20
2022-07-27T20:30:23.562Z,22.20
2022-07-27T20:32:51.885Z,22.20
2022-07-27T20:35:20.365Z,22.20
2022-07-27T20:37:51.583Z,22.20
2022-07-27T20:40:19.782Z,22.20
2022-07-27T20:42:48.656Z,22.10
2022-07-27T20:45:16.947Z,22.10
2022-07-27T20:47:46.394Z,22.10
2022-07-27T20:50:16.165Z,22.10
2022-07-27T20:52:44.218Z,22.10
2022-07-27T20:55:12.993Z,22.00
2022-07-27T20:57:41.176Z,22.10
2022-07-27T21:00:10.036Z,22.00
2022-07-27T21:02:38.324Z,22.00
2022-07-27T21:05:09.655Z,22.00
2022-07-27T21:07:37.918Z,22.00
2022-07-27T21:10:06.570Z,22.00
2022-07-27T21:12:34.792Z,21.90
2022-07-27T21:15:02.814Z,21.90
2022-07-27T21:17:31.280Z,22.00
2022-07-27T21:19:59.338Z,21.90
2022-07-27T21:22:28.794Z,21.90
2022-07-27T21:24:57.708Z,21.90
2022-07-27T21:27:26.161Z,21.90
2022-07-27T21:29:54.840Z,21.90
2022-07-27T21:32:22.934Z,21.90
2022-07-27T21:34:50.949Z,21.80
2022-07-27T21:37:19.022Z,21.80
2022-07-27T21:39:48.439Z,21.80
2022-07-27T21:42:16.519Z,21.80
2022-07-27T21:44:44.570Z,21.80
2022-07-27T21:47:14.231Z,21.70
2022-07-27T21:49:43.026Z,21.70
2022-07-27T21:52:11.264Z,21.70
2022-07-27T21:54:39.864Z,21.70
2022-07-27T21:57:09.332Z,21.60
2022-07-27T21:59:37.539Z,21.60
2022-07-27T22:02:05.527Z,21.60
2022-07-27T22:04:33.845Z,21.60
2022-07-27T22:07:01.904Z,21.50
2022-07-27T22:09:30.045Z,21.40
2022-07-27T22:11:58.103Z,21.30
2022-07-27T22:14:29.603Z,21.30
2022-07-27T22:17:00.027Z,21.30
2022-07-27T22:19:30.879Z,21.20
2022-07-27T22:21:58.883Z,21.20
2022-07-27T22:24:27.074Z,21.10
2022-07-27T22:26:55.109Z,21.00
2022-07-27T22:29:23.642Z,21.00
2022-07-27T22:31:53.041Z,21.00
2022-07-27T22:34:21.816Z,20.90
2022-07-27T22:36:49.869Z,20.90
2022-07-27T22:39:19.633Z,20.90
2022-07-27T22:41:47.781Z,20.90
2022-07-27T22:44:15.975Z,20.90
2022-07-27T22:46:49.166Z,20.80
2022-07-27T22:49:18.655Z,20.80
2022-07-27T22:51:49.836Z,20.80
2022-07-27T22:54:21.382Z,20.70
2022-07-27T22:56:49.653Z,20.70
2022-07-27T22:59:17.704Z,20.70
2022-07-27T23:01:48.029Z,20.70
2022-07-27T23:04:18.771Z,20.70
2022-07-27T23:06:47.150Z,20.60
2022-07-27T23:09:15.611Z,20.60
2022-07-27T23:11:44.359Z,20.50
2022-07-27T23:14:13.051Z,20.60
2022-07-27T23:16:41.831Z,20.50
2022-07-27T23:19:10.148Z,20.50
2022-07-27T23:21:42.143Z,20.50
2022-07-27T23:24:11.165Z,20.50
2022-07-27T23:26:39.606Z,20.50
2022-07-27T23:29:07.745Z,20.40
2022-07-27T23:31:35.988Z,20.20
2022-07-27T23:34:04.109Z,20.10
2022-07-27T23:36:32.154Z,20.20
2022-07-27T23:39:01.586Z,20.10
2022-07-27T23:41:29.596Z,20.10
2022-07-27T23:43:57.607Z,20.00
2022-07-27T23:46:25.678Z,20.00
2022-07-27T23:48:53.796Z,20.10
2022-07-27T23:51:22.246Z,20.00
2022-07-27T23:53:50.262Z,20.00
2022-07-27T23:56:19.707Z,19.90
2022-07-27T23:58:47.719Z,19.80
